createdAt,value
2023-03-26T00:01:52.076Z,1.80
2023-03-26T00:04:54.752Z,1.55
2023-03-26T00:07:57.518Z,2.03
2023-03-26T00:11:01.285Z,1.90
2023-03-26T00:14:05.894Z,2.13
2023-03-26T00:17:08.725Z,1.67
2023-03-26T00:20:11.810Z,1.92
2023-03-26T00:23:14.632Z,2.87
2023-03-26T00:26:17.650Z,2.60
2023-03-26T00:29:20.454Z,2.60
2023-03-26T00:32:28.010Z,2.28
2023-03-26T00:35:30.846Z,2.35
2023-03-26T00:38:39.072Z,2.43
2023-03-26T00:41:43.441Z,2.40
2023-03-26T00:44:46.535Z,1.98
2023-03-26T00:47:49.392Z,1.88
2023-03-26T00:50:52.189Z,2.45
2023-03-26T00:53:55.567Z,2.50
2023-03-26T00:56:58.262Z,2.17
2023-03-26T01:00:13.155Z,2.03
2023-03-26T01:03:26.939Z,2.45
2023-03-26T01:06:36.712Z,2.05
2023-03-26T01:09:45.850Z,2.30
2023-03-26T01:12:48.668Z,2.22
2023-03-26T01:15:53.131Z,2.00
2023-03-26T01:18:58.891Z,2.13
2023-03-26T01:22:01.865Z,2.42
2023-03-26T01:25:05.713Z,2.03
2023-03-26T01:28:12.735Z,1.92
2023-03-26T01:31:20.049Z,2.10
2023-03-26T01:34:30.754Z,2.53
2023-03-26T01:38:02.707Z,2.50
2023-03-26T01:41:24.084Z,2.40
2023-03-26T01:44:30.165Z,2.30
2023-03-26T01:47:35.024Z,2.80
2023-03-26T01:50:37.791Z,2.88
2023-03-26T01:53:48.482Z,2.33
2023-03-26T01:57:09.243Z,2.43
2023-03-26T02:00:22.798Z,2.42
2023-03-26T02:03:31.343Z,2.50
2023-03-26T02:06:49.642Z,2.20
2023-03-26T02:09:58.373Z,2.75
2023-03-26T02:13:01.569Z,2.23
2023-03-26T02:16:07.633Z,2.60
2023-03-26T02:19:15.971Z,2.08
2023-03-26T02:22:19.361Z,2.30
2023-03-26T02:25:23.592Z,2.67
2023-03-26T02:28:27.167Z,2.93
2023-03-26T02:31:30.291Z,2.85
2023-03-26T02:34:33.596Z,2.80
2023-03-26T02:37:36.435Z,3.17
2023-03-26T02:40:48.386Z,2.80
2023-03-26T02:43:51.766Z,3.13
2023-03-26T02:46:58.077Z,3.15
2023-03-26T02:50:22.243Z,2.83
2023-03-26T02:53:45.060Z,2.67
2023-03-26T02:57:11.264Z,2.72
2023-03-26T03:00:22.820Z,3.13
2023-03-26T03:03:27.759Z,2.92
2023-03-26T03:06:33.094Z,3.05
2023-03-26T03:09:36.104Z,2.83
2023-03-26T03:12:57.372Z,2.60
2023-03-26T03:16:00.113Z,2.53
2023-03-26T03:19:03.074Z,2.95
2023-03-26T03:22:12.492Z,3.08
2023-03-26T03:25:17.634Z,3.13
2023-03-26T03:28:22.677Z,2.65
2023-03-26T03:31:26.714Z,3.70
2023-03-26T03:34:34.253Z,3.05
2023-03-26T03:37:37.096Z,2.60
2023-03-26T03:40:44.275Z,2.55
2023-03-26T03:43:47.255Z,3.22
2023-03-26T03:46:57.222Z,2.87
2023-03-26T03:50:00.327Z,3.17
2023-03-26T03:53:05.816Z,2.97
2023-03-26T03:56:10.475Z,2.80
2023-03-26T03:59:51.708Z,3.28
2023-03-26T04:02:54.752Z,2.90
2023-03-26T04:06:02.317Z,2.72
2023-03-26T04:09:05.525Z,3.20
2023-03-26T04:12:08.383Z,3.63
2023-03-26T04:15:16.922Z,3.10
2023-03-26T04:18:26.403Z,3.50
2023-03-26T04:21:34.083Z,3.08
2023-03-26T04:24:40.297Z,3.13
2023-03-26T04:27:58.538Z,3.63
2023-03-26T04:31:29.572Z,3.85
2023-03-26T04:34:34.325Z,3.57
2023-03-26T04:37:47.828Z,3.90
2023-03-26T04:41:01.204Z,5.13
2023-03-26T04:44:36.949Z,4.25
2023-03-26T04:47:46.737Z,4.70
2023-03-26T04:50:50.460Z,5.40
2023-03-26T04:54:00.464Z,4.50
2023-03-26T04:57:39.478Z,3.58
2023-03-26T05:00:47.618Z,4.28
2023-03-26T05:03:50.655Z,4.35
2023-03-26T05:06:54.322Z,3.83
2023-03-26T05:10:12.693Z,4.20
2023-03-26T05:13:35.859Z,3.72
2023-03-26T05:16:44.977Z,3.42
2023-03-26T05:19:47.951Z,3.80
2023-03-26T05:22:51.028Z,3.13
2023-03-26T05:26:04.121Z,3.00
2023-03-26T05:29:07.280Z,3.10
2023-03-26T05:32:18.723Z,3.22
2023-03-26T05:35:22.963Z,3.03
2023-03-26T05:38:26.213Z,2.40
2023-03-26T05:41:29.315Z,2.80
2023-03-26T05:44:32.086Z,2.42
2023-03-26T05:47:39.327Z,2.97
2023-03-26T05:50:42.478Z,2.58
2023-03-26T05:53:45.844Z,2.53
2023-03-26T05:57:11.297Z,2.70
2023-03-26T06:00:43.382Z,2.95
2023-03-26T06:03:48.604Z,2.40
2023-03-26T06:06:54.812Z,2.70
2023-03-26T06:09:57.686Z,1.93
2023-03-26T06:13:00.430Z,2.88
2023-03-26T06:16:03.369Z,2.20
2023-03-26T06:19:09.388Z,2.63
2023-03-26T06:22:38.533Z,1.80
2023-03-26T06:25:51.755Z,2.23
2023-03-26T06:29:14.797Z,2.08
2023-03-26T06:32:26.321Z,2.42
2023-03-26T06:36:01.635Z,1.95
2023-03-26T06:39:07.644Z,2.15
2023-03-26T06:42:12.990Z,2.20
2023-03-26T06:45:33.431Z,1.60
2023-03-26T06:48:55.044Z,1.83
2023-03-26T06:52:16.562Z,1.70
2023-03-26T06:55:37.891Z,1.90
2023-03-26T06:58:58.181Z,1.50
2023-03-26T07:02:07.435Z,1.70
2023-03-26T07:05:29.070Z,1.67
2023-03-26T07:08:50.727Z,1.70
2023-03-26T07:12:12.362Z,0.90
2023-03-26T07:15:24.405Z,1.40
2023-03-26T07:18:30.288Z,1.00
2023-03-26T07:21:34.399Z,0.90
2023-03-26T07:24:42.003Z,0.57
2023-03-26T07:28:01.121Z,0.35
2023-03-26T07:31:30.825Z,0.30
2023-03-26T07:35:20.823Z,0.10
2023-03-26T07:39:13.098Z,0.30
2023-03-26T07:43:10.294Z,0.17
2023-03-26T07:46:29.348Z,0.10
2023-03-26T07:50:04.926Z,0.30
2023-03-26T07:53:23.390Z,0.00
2023-03-26T07:56:58.893Z,0.00
2023-03-26T08:00:22.353Z,0.32
2023-03-26T08:03:51.309Z,0.30
2023-03-26T08:07:45.199Z,0.47
2023-03-26T08:11:07.367Z,0.40
2023-03-26T08:14:41.108Z,0.70
2023-03-26T08:17:54.496Z,0.30
2023-03-26T08:21:11.316Z,1.60
2023-03-26T08:24:32.967Z,1.00
2023-03-26T08:27:43.436Z,1.38
2023-03-26T08:30:47.150Z,0.63
2023-03-26T08:33:50.225Z,0.68
2023-03-26T08:36:52.963Z,0.85
2023-03-26T08:39:56.064Z,0.80
2023-03-26T08:43:21.380Z,0.50
2023-03-26T08:46:26.916Z,0.30
2023-03-26T08:49:32.510Z,0.03
2023-03-26T08:52:41.908Z,0.20
2023-03-26T08:56:01.637Z,0.07
2023-03-26T08:59:34.785Z,0.20
2023-03-26T09:02:53.123Z,0.20
2023-03-26T09:06:33.145Z,0.50
2023-03-26T09:09:57.270Z,0.40
2023-03-26T09:13:22.970Z,0.30
2023-03-26T09:16:54.023Z,0.55
2023-03-26T09:20:24.311Z,0.50
2023-03-26T09:23:45.420Z,0.57
2023-03-26T09:26:59.689Z,0.40
2023-03-26T09:30:21.252Z,0.60
2023-03-26T09:33:49.681Z,0.40
2023-03-26T09:37:14.169Z,0.20
2023-03-26T09:40:19.292Z,0.50
2023-03-26T09:43:50.001Z,0.20
2023-03-26T09:47:31.942Z,0.20
2023-03-26T09:50:46.785Z,0.13
2023-03-26T09:54:10.511Z,0.55
2023-03-26T09:57:15.595Z,0.00
2023-03-26T10:00:24.603Z,0.00
2023-03-26T10:03:48.802Z,0.00
2023-03-26T10:07:01.475Z,0.20
2023-03-26T10:10:41.743Z,0.32
2023-03-26T10:14:03.910Z,0.38
2023-03-26T10:17:33.888Z,0.30
2023-03-26T10:21:01.301Z,0.17
2023-03-26T10:24:30.932Z,0.20
2023-03-26T10:27:55.146Z,0.20
2023-03-26T10:31:16.019Z,0.43
2023-03-26T10:34:29.417Z,0.30
2023-03-26T10:37:38.257Z,0.47
2023-03-26T10:40:48.851Z,0.20
2023-03-26T10:44:05.262Z,0.13
2023-03-26T10:47:31.330Z,0.20
2023-03-26T10:51:03.546Z,0.32
2023-03-26T10:54:30.671Z,0.30
2023-03-26T10:57:44.272Z,0.32
2023-03-26T11:00:56.224Z,0.40
2023-03-26T11:04:13.961Z,0.10
2023-03-26T11:07:30.414Z,0.20
2023-03-26T11:10:55.132Z,0.17
2023-03-26T11:14:02.751Z,0.20
2023-03-26T11:17:40.466Z,0.20
2023-03-26T11:21:18.820Z,0.40
2023-03-26T11:24:43.457Z,0.25
2023-03-26T11:28:05.895Z,0.20
2023-03-26T11:31:41.064Z,0.32
2023-03-26T11:35:05.995Z,0.63
2023-03-26T11:38:39.658Z,0.50
2023-03-26T11:41:45.754Z,0.40
2023-03-26T11:45:08.320Z,0.50
2023-03-26T11:48:19.394Z,0.40
2023-03-26T11:51:34.015Z,0.40
2023-03-26T11:54:37.958Z,0.60
2023-03-26T11:57:46.521Z,0.60
2023-03-26T12:00:53.012Z,0.70
2023-03-26T12:04:15.938Z,0.60
2023-03-26T12:07:22.776Z,0.60
2023-03-26T12:10:25.775Z,0.60
2023-03-26T12:13:38.323Z,0.60
2023-03-26T12:17:04.427Z,0.50
2023-03-26T12:20:22.832Z,0.28
2023-03-26T12:23:43.835Z,0.10
2023-03-26T12:26:46.877Z,0.30
2023-03-26T12:30:00.243Z,0.30
2023-03-26T12:33:27.165Z,0.40
2023-03-26T12:36:33.427Z,0.20
2023-03-26T12:40:06.537Z,0.30
2023-03-26T12:44:54.324Z,0.25
2023-03-26T12:48:00.155Z,0.40
2023-03-26T12:50:15.784Z,0.27
2023-03-26T12:53:21.954Z,0.30
2023-03-26T12:56:38.675Z,0.25
2023-03-26T13:00:08.888Z,0.10
2023-03-26T13:03:14.927Z,0.30
2023-03-26T13:06:59.288Z,0.70
2023-03-26T13:10:21.249Z,0.85
2023-03-26T13:13:44.368Z,0.30
2023-03-26T13:17:04.663Z,0.28
2023-03-26T13:20:16.427Z,0.63
2023-03-26T13:23:42.984Z,0.90
2023-03-26T13:27:04.270Z,0.52
2023-03-26T13:30:15.112Z,0.60
2023-03-26T13:33:44.487Z,0.60
2023-03-26T13:37:20.164Z,0.60
2023-03-26T13:40:37.110Z,0.80
2023-03-26T13:44:23.271Z,0.40
2023-03-26T13:47:29.302Z,0.32
2023-03-26T13:50:38.988Z,0.40
2023-03-26T13:53:47.848Z,0.95
2023-03-26T13:56:55.252Z,0.80
2023-03-26T14:00:06.256Z,0.73
2023-03-26T14:03:26.741Z,0.70
2023-03-26T14:06:42.460Z,0.80
2023-03-26T14:09:54.555Z,1.10
2023-03-26T14:13:04.359Z,1.00
2023-03-26T14:16:17.056Z,0.57
2023-03-26T14:19:51.177Z,0.63
2023-03-26T14:23:09.737Z,1.00
2023-03-26T14:26:43.673Z,0.75
2023-03-26T14:30:22.644Z,0.33
2023-03-26T14:33:46.583Z,0.60
2023-03-26T14:37:06.009Z,0.65
2023-03-26T14:40:45.982Z,0.60
2023-03-26T14:44:17.842Z,0.32
2023-03-26T14:47:22.104Z,0.33
2023-03-26T14:51:09.392Z,0.68
2023-03-26T14:54:25.414Z,0.60
2023-03-26T14:58:09.510Z,1.33
2023-03-26T15:01:34.119Z,0.90
2023-03-26T15:04:58.186Z,1.20
2023-03-26T15:08:33.795Z,0.57
2023-03-26T15:12:12.238Z,0.65
2023-03-26T15:15:35.646Z,1.30
2023-03-26T15:18:56.741Z,0.95
2023-03-26T15:22:06.072Z,0.53
2023-03-26T15:25:11.430Z,0.82
2023-03-26T15:28:16.956Z,0.82
2023-03-26T15:31:57.748Z,0.98
2023-03-26T15:35:13.237Z,0.68
2023-03-26T15:38:34.442Z,0.83
2023-03-26T15:41:52.277Z,1.08
2023-03-26T15:45:30.173Z,1.17
2023-03-26T15:48:35.769Z,0.80
2023-03-26T15:51:47.567Z,0.73
2023-03-26T15:55:04.137Z,1.17
2023-03-26T15:58:28.779Z,0.90
2023-03-26T16:01:46.505Z,1.20
2023-03-26T16:05:09.592Z,1.15
2023-03-26T16:08:38.687Z,1.25
2023-03-26T16:12:16.858Z,0.60
2023-03-26T16:15:28.438Z,0.85
2023-03-26T16:18:35.958Z,1.65
2023-03-26T16:21:45.896Z,1.80
2023-03-26T16:25:28.566Z,1.20
2023-03-26T16:28:56.870Z,1.50
2023-03-26T16:32:11.438Z,1.83
2023-03-26T16:35:14.315Z,1.75
2023-03-26T16:38:18.695Z,2.63
2023-03-26T16:41:27.140Z,3.47
2023-03-26T16:44:39.099Z,1.27
2023-03-26T16:48:10.459Z,0.70
2023-03-26T16:51:34.356Z,0.98
2023-03-26T16:54:52.621Z,1.60
2023-03-26T16:58:23.256Z,1.60
2023-03-26T17:01:48.401Z,1.70
2023-03-26T17:05:01.169Z,1.80
2023-03-26T17:08:35.606Z,1.80
2023-03-26T17:11:57.729Z,2.55
2023-03-26T17:15:16.985Z,2.10
2023-03-26T17:18:49.261Z,2.30
2023-03-26T17:22:14.027Z,1.90
2023-03-26T17:25:34.259Z,2.25
2023-03-26T17:29:28.295Z,2.05
2023-03-26T17:32:54.491Z,2.72
2023-03-26T17:36:12.768Z,2.27
2023-03-26T17:39:21.887Z,1.92
2023-03-26T17:42:36.226Z,2.70
2023-03-26T17:45:42.194Z,2.92
2023-03-26T17:48:49.437Z,4.28
2023-03-26T17:52:01.089Z,9.60
2023-03-26T17:55:04.704Z,6.90
2023-03-26T17:58:27.217Z,6.78
2023-03-26T18:01:34.664Z,5.47
2023-03-26T18:04:42.264Z,5.75
2023-03-26T18:08:12.748Z,7.07
2023-03-26T18:11:36.242Z,7.72
2023-03-26T18:15:18.390Z,3.17
2023-03-26T18:18:53.561Z,1.60
2023-03-26T18:22:03.764Z,0.90
2023-03-26T18:25:07.121Z,1.10
2023-03-26T18:28:14.380Z,0.73
2023-03-26T18:31:19.493Z,20.42
2023-03-26T18:34:24.508Z,23.23
2023-03-26T18:37:34.784Z,10.23
2023-03-26T18:40:42.676Z,4.87
2023-03-26T18:43:45.830Z,3.33
2023-03-26T18:46:49.137Z,2.53
2023-03-26T18:49:55.772Z,2.55
2023-03-26T18:53:00.656Z,4.38
2023-03-26T18:56:27.714Z,3.93
2023-03-26T18:59:35.234Z,5.68
2023-03-26T19:02:39.194Z,4.30
2023-03-26T19:05:42.165Z,1.88
2023-03-26T19:08:47.122Z,2.75
2023-03-26T19:11:55.921Z,4.30
2023-03-26T19:15:15.618Z,7.10
2023-03-26T19:18:22.987Z,6.55
2023-03-26T19:21:26.298Z,6.18
2023-03-26T19:24:29.803Z,6.95
2023-03-26T19:27:33.143Z,8.20
2023-03-26T19:30:41.978Z,6.55
2023-03-26T19:33:53.418Z,7.30
2023-03-26T19:37:01.247Z,3.30
2023-03-26T19:40:19.249Z,3.50
2023-03-26T19:43:23.490Z,3.57
2023-03-26T19:46:28.755Z,1.75
2023-03-26T19:49:42.078Z,2.03
2023-03-26T19:52:45.304Z,1.98
2023-03-26T19:56:09.759Z,2.00
2023-03-26T19:59:14.329Z,1.47
2023-03-26T20:02:18.210Z,1.27
2023-03-26T20:05:27.001Z,1.23
2023-03-26T20:08:30.073Z,1.25
2023-03-26T20:11:38.052Z,1.63
2023-03-26T20:14:43.477Z,1.60
2023-03-26T20:17:50.651Z,1.58
2023-03-26T20:20:54.438Z,1.50
2023-03-26T20:23:59.305Z,1.45
2023-03-26T20:27:02.299Z,1.20
2023-03-26T20:30:07.228Z,1.20
2023-03-26T20:33:26.833Z,1.45
2023-03-26T20:36:32.999Z,0.93
2023-03-26T20:39:37.903Z,0.80
2023-03-26T20:42:42.712Z,0.82
2023-03-26T20:45:46.115Z,0.80
2023-03-26T20:48:49.551Z,0.63
2023-03-26T20:51:52.826Z,0.50
2023-03-26T20:54:56.168Z,0.52
2023-03-26T20:57:59.661Z,0.80
2023-03-26T21:01:03.069Z,0.63
2023-03-26T21:04:06.651Z,1.02
2023-03-26T21:07:17.679Z,0.73
2023-03-26T21:10:25.494Z,0.75
2023-03-26T21:13:43.008Z,0.95
2023-03-26T21:16:46.196Z,0.90
2023-03-26T21:19:49.866Z,0.47
2023-03-26T21:23:16.816Z,0.60
2023-03-26T21:26:41.651Z,0.73
2023-03-26T21:29:45.048Z,0.68
2023-03-26T21:32:48.699Z,1.13
2023-03-26T21:35:57.140Z,0.90
2023-03-26T21:39:00.331Z,0.90
2023-03-26T21:42:04.663Z,0.90
2023-03-26T21:45:09.569Z,1.23
2023-03-26T21:48:12.932Z,0.90
2023-03-26T21:51:17.906Z,0.70
2023-03-26T21:54:29.575Z,0.90
2023-03-26T21:57:34.838Z,1.10
2023-03-26T22:00:50.770Z,1.40
2023-03-26T22:04:15.141Z,1.43
2023-03-26T22:07:23.363Z,0.98
2023-03-26T22:10:27.226Z,1.40
2023-03-26T22:13:31.093Z,1.17
2023-03-26T22:16:33.936Z,1.33
2023-03-26T22:19:37.280Z,1.57
2023-03-26T22:22:48.854Z,1.50
2023-03-26T22:25:52.256Z,1.10
2023-03-26T22:28:55.123Z,1.20
2023-03-26T22:31:57.977Z,1.40
2023-03-26T22:35:01.259Z,1.30
2023-03-26T22:38:05.179Z,0.98
2023-03-26T22:41:08.851Z,1.30
2023-03-26T22:44:19.612Z,1.90
2023-03-26T22:47:22.804Z,1.35
2023-03-26T22:50:27.192Z,1.20
2023-03-26T22:53:31.013Z,1.27
2023-03-26T22:56:33.837Z,1.13
2023-03-26T22:59:36.810Z,1.40
2023-03-26T23:02:40.539Z,1.23
2023-03-26T23:05:43.344Z,1.47
2023-03-26T23:08:46.432Z,1.30
2023-03-26T23:11:49.260Z,1.70
2023-03-26T23:14:53.094Z,1.80
2023-03-26T23:17:58.953Z,1.88
2023-03-26T23:21:01.916Z,2.10
2023-03-26T23:24:05.238Z,2.15
2023-03-26T23:27:08.046Z,2.22
2023-03-26T23:30:11.613Z,1.70
2023-03-26T23:33:15.002Z,1.50
2023-03-26T23:36:19.698Z,1.33
2023-03-26T23:39:22.409Z,1.73
2023-03-26T23:42:28.265Z,1.70
2023-03-26T23:45:31.800Z,2.05
2023-03-26T23:48:34.752Z,1.80
2023-03-26T23:51:38.211Z,1.47
2023-03-26T23:54:42.568Z,1.55
2023-03-26T23:57:45.306Z,1.70
